Startpagina
METAR-TAF:

METAR-TAF

Vliegvelden :

Macas, Ecuador

breedte: 02-17-57-S, lengte: 078-07-15-W, hoogte: 1052 m

Actueel weer

Dit bericht is 3 uur en het 54 minuten geleden gemaakt, om 23:00 UTC
Wind 5 kt uit het noorden
Temperatuur 23°C
Vochtigheid 73%
Druk 1013 hPa
Zicht 10 km of meer
Weinig wolken op 3000 ft
Verspreide wolken op 26000 ft

METAR: SEMC 112300Z 35005KT 9999 FEW030 SCT260 23/18 Q1013 RMK A2993

Tijdstip: 21:54 (02:54 UTC)


TAF: ontbreekt

Waarnemingen en weersverwachtingen van meer dan 4000 vliegvelden (METAR en TAF).

De beschikbare stations zijn de gele en rode punten op de kaart.

Ga met uw muis naar het station om de naam te zien.

Klik dan om waarnemingen en weersverwachtingen te zien.

kaart wijzigen: klik op de groene knoppen met een zwart kruis om in te zoomen, op de groene knop met een streepje om uit te zoomen of op de groene pijlen voor aangrenzende kaarten.


METAR-TAF: